Eurasian Highway — 7JKY — position and weather

sailwx.info

Track history (hours):
 
Tides and Currents Weather Stations Pressure Air Temp Water Temp Dewpoint Dewpoint Depression Visibility Wind Speed Wind Dir Waves Ship Positions

Eurasian Highway

Last reported at 2017-Oct-08 22:14 UTC. Time now 2017-Oct-20 01:52 UTC.
Position S 27°41' E 154°05'.
Warning: this ship's position is 11 days out of date.

Length 199 m; draft 7.9 m.

Type: Cargo ship. MMSI: 432839000.

Date/timePositionNaut miles runAvg speedWind from/ knotsBaromVisibWave heightAir tempDewpointWater temp
2017-Oct-08 22:14S 27°41' E 154°05'615.3
2017-Oct-08 21:49S 27°47' E 154°05'615.3
2017-Oct-08 21:25S 27°53' E 154°05'615.3
2017-Oct-08 21:00S 27°60' E 154°05'815.2
2017-Oct-08 20:30S 28°07' E 154°05'714.8
2017-Oct-08 20:00S 28°14' E 154°03'815.1
2017-Oct-08 19:29S 28°22' E 154°03'714.9
2017-Oct-08 19:00S 28°29' E 154°03'22715.4
2017-Oct-08 04:19S 32°06' E 152°48'915.2
2017-Oct-08 03:42S 32°15' E 152°44'415.2
2017-Oct-08 03:28S 32°18' E 152°43'715.1
2017-Oct-08 03:00S 32°25' E 152°40'714.9
2017-Oct-08 02:30S 32°32' E 152°37'714.9
2017-Oct-08 02:00S 32°39' E 152°34'815.1
2017-Oct-08 01:30S 32°46' E 152°31'714.4
2017-Oct-08 01:00S 32°53' E 152°28'714.5
2017-Oct-08 00:30S 32°60' E 152°25'714.5
2017-Oct-08 00:00S 33°07' E 152°23'714.1
2017-Oct-07 23:30S 33°13' E 152°20'33216.3
2017-Oct-07 03:04S 38°12' E 149°20'116.3
2017-Oct-07 03:00S 38°12' E 149°19'816.4
2017-Oct-07 02:29S 38°17' E 149°10'816.6
2017-Oct-07 02:00S 38°22' E 149°02'916.5
2017-Oct-07 01:29S 38°26' E 148°53'816.0
2017-Oct-07 01:00S 38°31' E 148°45'916.0
2017-Oct-07 00:27S 38°36' E 148°35'53314.8
2017-Oct-05 12:23S 35°40' E 138°04'3916.6
2017-Oct-05 10:01S 35°02' E 138°15'016.7
2017-Oct-05 10:00S 35°02' E 138°15'917.0
2017-Oct-05 09:28S 34°53' E 138°19'375 8.3
2017-Oct-03 12:09S 38°12' E 144°55'319.4
2017-Oct-03 12:00S 38°09' E 144°55'1019.1
2017-Oct-03 11:30S 37°60' E 144°55'714.7
2017-Oct-03 11:01S 37°53' E 144°56'2 2.3
2017-Oct-03 10:03S 37°51' E 144°54'0 0.0
2017-Oct-02 19:40S 37°51' E 144°54'0 1.0
2017-Oct-02 19:27S 37°51' E 144°54'2 4.7
2017-Oct-02 18:59S 37°53' E 144°56'814.9
2017-Oct-02 18:24S 38°01' E 144°55'718.1
2017-Oct-02 18:01S 38°09' E 144°55'1311.4
2017-Oct-02 16:51S 38°18' E 144°44'18811.7
2017-Oct-02 00:53S 38°27' E 148°43'916.1
2017-Oct-02 00:20S 38°22' E 148°52'617.4
2017-Oct-02 00:00S 38°18' E 148°57'917.6
2017-Oct-01 23:29S 38°13' E 149°07'  
2017-Sep-29 18:17S 29°43' E 153°40'517.6
2017-Sep-29 18:00S 29°38' E 153°42'917.5
2017-Sep-29 17:30S 29°30' E 153°44'2717.4
2017-Sep-29 15:58S 29°04' E 153°51'817.6
2017-Sep-29 15:30S 28°56' E 153°54'917.4
2017-Sep-29 15:00S 28°47' E 153°56'917.6
2017-Sep-29 14:30S 28°39' E 153°58'917.2
2017-Sep-29 14:00S 28°30' E 153°56'917.0
2017-Sep-29 13:30S 28°22' E 153°54'817.0
2017-Sep-29 13:00S 28°14' E 153°54'1019.1
2017-Sep-29 12:30S 28°04' E 153°52'1019.2
2017-Sep-29 12:00S 27°55' E 153°49'1019.1
2017-Sep-29 11:30S 27°46' E 153°46'1019.9
2017-Sep-29 11:00S 27°36' E 153°44'1020.1
2017-Sep-29 10:30S 27°26' E 153°42'1019.5
2017-Sep-29 10:00S 27°17' E 153°39'1018.7
2017-Sep-29 09:29S 27°07' E 153°35'918.7
2017-Sep-29 09:00S 26°59' E 153°33'917.7
2017-Sep-29 08:30S 26°52' E 153°26'917.9
2017-Sep-29 08:00S 26°47' E 153°18'713.8
2017-Sep-29 07:30S 26°45' E 153°11'815.0
2017-Sep-29 07:00S 26°52' E 153°10'817.1
2017-Sep-29 06:31S 26°60' E 153°14'815.6
2017-Sep-29 06:01S 27°06' E 153°19'815.6
2017-Sep-29 05:31S 27°14' E 153°20'815.8
2017-Sep-29 05:00S 27°18' E 153°13'510.1
2017-Sep-29 04:30S 27°23' E 153°10'0 0.3
2017-Sep-29 04:00S 27°23' E 153°10'0 0.0
2017-Sep-29 03:30S 27°23' E 153°10'0 0.0
2017-Sep-29 03:00S 27°23' E 153°10'0 0.0
2017-Sep-29 02:09S 27°23' E 153°10'0 0.0
2017-Sep-29 02:00S 27°23' E 153°10'0 0.0
2017-Sep-29 01:30S 27°23' E 153°10'0 0.0
2017-Sep-29 01:00S 27°23' E 153°10'0 0.0
2017-Sep-29 00:30S 27°23' E 153°10'0 0.0
2017-Sep-28 23:57S 27°23' E 153°10'0 0.0
2017-Sep-28 23:30S 27°23' E 153°10'0 0.0
2017-Sep-28 23:00S 27°23' E 153°10'0 0.0
2017-Sep-28 22:30S 27°23' E 153°10'  
Track history (hours):
 
Tides and Currents Weather Stations Pressure Air Temp Water Temp Dewpoint Dewpoint Depression Visibility Wind Speed Wind Dir Waves Ship Positions

Eurasian Highway

Last reported at 2017-Oct-08 22:14 UTC. Time now 2017-Oct-20 01:52 UTC.
Position S 27°41' E 154°05'.
Warning: this ship's position is 11 days out of date.

Length 199 m; draft 7.9 m.

Type: Cargo ship. MMSI: 432839000.

Date/timePositionNaut miles runAvg speedWind from/ knotsBaromVisibWave heightAir tempDewpointWater temp
2017-Oct-08 22:14S 27°41' E 154°05'615.3
2017-Oct-08 21:49S 27°47' E 154°05'615.3
2017-Oct-08 21:25S 27°53' E 154°05'615.3
2017-Oct-08 21:00S 27°60' E 154°05'815.2
2017-Oct-08 20:30S 28°07' E 154°05'714.8
2017-Oct-08 20:00S 28°14' E 154°03'815.1
2017-Oct-08 19:29S 28°22' E 154°03'714.9
2017-Oct-08 19:00S 28°29' E 154°03'22715.4
2017-Oct-08 04:19S 32°06' E 152°48'915.2
2017-Oct-08 03:42S 32°15' E 152°44'415.2
2017-Oct-08 03:28S 32°18' E 152°43'715.1
2017-Oct-08 03:00S 32°25' E 152°40'714.9
2017-Oct-08 02:30S 32°32' E 152°37'714.9
2017-Oct-08 02:00S 32°39' E 152°34'815.1
2017-Oct-08 01:30S 32°46' E 152°31'714.4
2017-Oct-08 01:00S 32°53' E 152°28'714.5
2017-Oct-08 00:30S 32°60' E 152°25'714.5
2017-Oct-08 00:00S 33°07' E 152°23'714.1
2017-Oct-07 23:30S 33°13' E 152°20'33216.3
2017-Oct-07 03:04S 38°12' E 149°20'116.3
2017-Oct-07 03:00S 38°12' E 149°19'816.4
2017-Oct-07 02:29S 38°17' E 149°10'816.6
2017-Oct-07 02:00S 38°22' E 149°02'916.5
2017-Oct-07 01:29S 38°26' E 148°53'816.0
2017-Oct-07 01:00S 38°31' E 148°45'916.0
2017-Oct-07 00:27S 38°36' E 148°35'53314.8
2017-Oct-05 12:23S 35°40' E 138°04'3916.6
2017-Oct-05 10:01S 35°02' E 138°15'016.7
2017-Oct-05 10:00S 35°02' E 138°15'917.0
2017-Oct-05 09:28S 34°53' E 138°19'375 8.3
2017-Oct-03 12:09S 38°12' E 144°55'319.4
2017-Oct-03 12:00S 38°09' E 144°55'1019.1
2017-Oct-03 11:30S 37°60' E 144°55'714.7
2017-Oct-03 11:01S 37°53' E 144°56'2 2.3
2017-Oct-03 10:03S 37°51' E 144°54'0 0.0
2017-Oct-02 19:40S 37°51' E 144°54'0 1.0
2017-Oct-02 19:27S 37°51' E 144°54'2 4.7
2017-Oct-02 18:59S 37°53' E 144°56'814.9
2017-Oct-02 18:24S 38°01' E 144°55'718.1
2017-Oct-02 18:01S 38°09' E 144°55'1311.4
2017-Oct-02 16:51S 38°18' E 144°44'18811.7
2017-Oct-02 00:53S 38°27' E 148°43'916.1
2017-Oct-02 00:20S 38°22' E 148°52'617.4
2017-Oct-02 00:00S 38°18' E 148°57'917.6
2017-Oct-01 23:29S 38°13' E 149°07'  
2017-Sep-29 18:17S 29°43' E 153°40'517.6
2017-Sep-29 18:00S 29°38' E 153°42'917.5
2017-Sep-29 17:30S 29°30' E 153°44'2717.4
2017-Sep-29 15:58S 29°04' E 153°51'817.6
2017-Sep-29 15:30S 28°56' E 153°54'917.4
2017-Sep-29 15:00S 28°47' E 153°56'917.6
2017-Sep-29 14:30S 28°39' E 153°58'917.2
2017-Sep-29 14:00S 28°30' E 153°56'917.0
2017-Sep-29 13:30S 28°22' E 153°54'817.0
2017-Sep-29 13:00S 28°14' E 153°54'1019.1
2017-Sep-29 12:30S 28°04' E 153°52'1019.2
2017-Sep-29 12:00S 27°55' E 153°49'1019.1
2017-Sep-29 11:30S 27°46' E 153°46'1019.9
2017-Sep-29 11:00S 27°36' E 153°44'1020.1
2017-Sep-29 10:30S 27°26' E 153°42'1019.5
2017-Sep-29 10:00S 27°17' E 153°39'1018.7
2017-Sep-29 09:29S 27°07' E 153°35'918.7
2017-Sep-29 09:00S 26°59' E 153°33'917.7
2017-Sep-29 08:30S 26°52' E 153°26'917.9
2017-Sep-29 08:00S 26°47' E 153°18'713.8
2017-Sep-29 07:30S 26°45' E 153°11'815.0
2017-Sep-29 07:00S 26°52' E 153°10'817.1
2017-Sep-29 06:31S 26°60' E 153°14'815.6
2017-Sep-29 06:01S 27°06' E 153°19'815.6
2017-Sep-29 05:31S 27°14' E 153°20'815.8
2017-Sep-29 05:00S 27°18' E 153°13'510.1
2017-Sep-29 04:30S 27°23' E 153°10'0 0.3
2017-Sep-29 04:00S 27°23' E 153°10'0 0.0
2017-Sep-29 03:30S 27°23' E 153°10'0 0.0
2017-Sep-29 03:00S 27°23' E 153°10'0 0.0
2017-Sep-29 02:09S 27°23' E 153°10'0 0.0
2017-Sep-29 02:00S 27°23' E 153°10'0 0.0
2017-Sep-29 01:30S 27°23' E 153°10'0 0.0
2017-Sep-29 01:00S 27°23' E 153°10'0 0.0
2017-Sep-29 00:30S 27°23' E 153°10'0 0.0
2017-Sep-28 23:57S 27°23' E 153°10'0 0.0
2017-Sep-28 23:30S 27°23' E 153°10'0 0.0
2017-Sep-28 23:00S 27°23' E 153°10'0 0.0
2017-Sep-28 22:30S 27°23' E 153°10'  

Dump ship's entire track history